Current Weather

Chhatrapati Shivaji Intl

Chhatrapati Shivaji Intl, India (VABB)

Report from: Saturday, February 4, 2023 10:30 AM IST
Current time: Saturday, February 4, 2023 11:24 AM IST

Nearby weather
Weather history
Weather forecast

Present weatherSmoke
Temperature30.0°C (86.0°F)
Heat index29.1°C (84.4°F)
Dew point12.0°C (53.6°F)
Winds 5 kts (2.6 m/s, 5.8 mph) East (100°)
Visibility1.6 mi. (2.5 km)
Altimeter29.91 in.Hg (1013 mB)
Relative humidity33 %
Density altitude1,926 ft. (587 m)
Remarks No significant changes expected in the next two hours
Flight conditions Instrument Meteorological Conditions
Raw dataVABB 040500Z 10005KT 2500 FU NSC 30/12 Q1013 NOSIG
An unhandled exception has occurred. See browser dev tools for details. Reload 🗙